sensor_id;sensor_type;location;lat;lon;timestamp;temperature;humidity
28532;DHT22;15738;44.860;10.066;2022-09-09T00:00:33;21.20;99.90
28532;DHT22;15738;44.860;10.066;2022-09-09T00:03:40;21.60;99.90
28532;DHT22;15738;44.860;10.066;2022-09-09T00:06:36;21.20;99.90
28532;DHT22;15738;44.860;10.066;2022-09-09T00:09:25;21.60;99.90
28532;DHT22;15738;44.860;10.066;2022-09-09T00:12:14;21.60;99.90
28532;DHT22;15738;44.860;10.066;2022-09-09T00:15:18;21.60;99.90
28532;DHT22;15738;44.860;10.066;2022-09-09T00:21:14;21.60;99.90
28532;DHT22;15738;44.860;10.066;2022-09-09T00:24:29;21.50;99.90
28532;DHT22;15738;44.860;10.066;2022-09-09T00:30:23;21.40;99.90
28532;DHT22;15738;44.860;10.066;2022-09-09T00:33:13;21.50;99.90
28532;DHT22;15738;44.860;10.066;2022-09-09T00:36:01;21.10;99.90
28532;DHT22;15738;44.860;10.066;2022-09-09T00:38:57;22.20;99.90
28532;DHT22;15738;44.860;10.066;2022-09-09T00:44:53;21.40;99.90
28532;DHT22;15738;44.860;10.066;2022-09-09T00:47:52;21.40;99.90
28532;DHT22;15738;44.860;10.066;2022-09-09T00:50:49;20.80;99.90
28532;DHT22;15738;44.860;10.066;2022-09-09T00:57:13;21.30;99.90
28532;DHT22;15738;44.860;10.066;2022-09-09T01:12:43;21.10;99.90
28532;DHT22;15738;44.860;10.066;2022-09-09T01:15:36;21.00;99.90
28532;DHT22;15738;44.860;10.066;2022-09-09T01:18:27;20.80;99.90
28532;DHT22;15738;44.860;10.066;2022-09-09T01:27:34;20.40;99.90
28532;DHT22;15738;44.860;10.066;2022-09-09T01:30:21;20.70;99.90
28532;DHT22;15738;44.860;10.066;2022-09-09T01:33:13;20.60;99.90
28532;DHT22;15738;44.860;10.066;2022-09-09T01:36:01;21.00;99.90
28532;DHT22;15738;44.860;10.066;2022-09-09T01:38:54;20.60;99.90
28532;DHT22;15738;44.860;10.066;2022-09-09T01:44:30;20.60;99.90
28532;DHT22;15738;44.860;10.066;2022-09-09T01:47:16;20.60;99.90
28532;DHT22;15738;44.860;10.066;2022-09-09T01:50:23;20.40;99.90
28532;DHT22;15738;44.860;10.066;2022-09-09T01:53:11;20.20;99.90
28532;DHT22;15738;44.860;10.066;2022-09-09T02:02:13;20.30;99.90
28532;DHT22;15738;44.860;10.066;2022-09-09T02:05:38;20.30;99.90
28532;DHT22;15738;44.860;10.066;2022-09-09T02:08:45;20.30;99.90
28532;DHT22;15738;44.860;10.066;2022-09-09T02:11:33;20.30;99.90
28532;DHT22;15738;44.860;10.066;2022-09-09T02:14:34;20.20;99.90
28532;DHT22;15738;44.860;10.066;2022-09-09T02:17:29;20.20;99.90
28532;DHT22;15738;44.860;10.066;2022-09-09T02:20:31;20.20;99.90
28532;DHT22;15738;44.860;10.066;2022-09-09T02:23:20;20.40;99.90
28532;DHT22;15738;44.860;10.066;2022-09-09T02:26:12;20.00;99.90
28532;DHT22;15738;44.860;10.066;2022-09-09T02:29:27;19.90;99.90
28532;DHT22;15738;44.860;10.066;2022-09-09T02:32:18;19.90;99.90
28532;DHT22;15738;44.860;10.066;2022-09-09T02:35:15;19.90;99.90
28532;DHT22;15738;44.860;10.066;2022-09-09T02:38:07;19.80;99.90
28532;DHT22;15738;44.860;10.066;2022-09-09T02:40:57;19.80;99.90
28532;DHT22;15738;44.860;10.066;2022-09-09T02:43:44;19.80;99.90
28532;DHT22;15738;44.860;10.066;2022-09-09T02:46:47;19.80;99.90
28532;DHT22;15738;44.860;10.066;2022-09-09T02:58:42;19.60;99.90
28532;DHT22;15738;44.860;10.066;2022-09-09T03:01:27;20.80;99.90
28532;DHT22;15738;44.860;10.066;2022-09-09T03:04:13;19.60;99.90
28532;DHT22;15738;44.860;10.066;2022-09-09T03:06:59;19.20;99.90
28532;DHT22;15738;44.860;10.066;2022-09-09T03:09:45;19.60;99.90
28532;DHT22;15738;44.860;10.066;2022-09-09T03:12:31;20.00;99.90
28532;DHT22;15738;44.860;10.066;2022-09-09T03:15:19;19.70;99.90
28532;DHT22;15738;44.860;10.066;2022-09-09T03:18:05;19.60;99.90
28532;DHT22;15738;44.860;10.066;2022-09-09T03:20:51;19.60;99.90
28532;DHT22;15738;44.860;10.066;2022-09-09T03:23:40;19.60;99.90
28532;DHT22;15738;44.860;10.066;2022-09-09T03:26:26;19.60;99.90
28532;DHT22;15738;44.860;10.066;2022-09-09T03:29:13;19.60;99.90
28532;DHT22;15738;44.860;10.066;2022-09-09T03:32:00;19.60;99.90
28532;DHT22;15738;44.860;10.066;2022-09-09T03:34:46;19.50;99.90
28532;DHT22;15738;44.860;10.066;2022-09-09T03:37:33;19.40;99.90
28532;DHT22;15738;44.860;10.066;2022-09-09T03:40:19;18.90;99.90
28532;DHT22;15738;44.860;10.066;2022-09-09T03:43:06;19.00;99.90
28532;DHT22;15738;44.860;10.066;2022-09-09T03:45:52;19.40;99.90
28532;DHT22;15738;44.860;10.066;2022-09-09T03:48:38;19.80;99.90
28532;DHT22;15738;44.860;10.066;2022-09-09T03:51:24;20.50;99.90
28532;DHT22;15738;44.860;10.066;2022-09-09T03:54:10;19.20;99.90
28532;DHT22;15738;44.860;10.066;2022-09-09T03:56:56;19.30;99.90
28532;DHT22;15738;44.860;10.066;2022-09-09T03:59:44;19.40;99.90
28532;DHT22;15738;44.860;10.066;2022-09-09T04:02:29;19.10;99.90
28532;DHT22;15738;44.860;10.066;2022-09-09T04:05:15;19.10;99.90
28532;DHT22;15738;44.860;10.066;2022-09-09T04:08:04;18.80;99.90
28532;DHT22;15738;44.860;10.066;2022-09-09T04:10:50;18.80;99.90
28532;DHT22;15738;44.860;10.066;2022-09-09T04:13:37;19.00;99.90
28532;DHT22;15738;44.860;10.066;2022-09-09T04:16:26;19.00;99.90
28532;DHT22;15738;44.860;10.066;2022-09-09T04:19:13;18.80;99.90
28532;DHT22;15738;44.860;10.066;2022-09-09T04:22:00;18.90;99.90
28532;DHT22;15738;44.860;10.066;2022-09-09T04:27:35;18.60;99.90
28532;DHT22;15738;44.860;10.066;2022-09-09T04:33:09;18.40;99.90
28532;DHT22;15738;44.860;10.066;2022-09-09T04:35:56;18.50;99.90
28532;DHT22;15738;44.860;10.066;2022-09-09T04:38:43;18.60;99.90
28532;DHT22;15738;44.860;10.066;2022-09-09T04:41:30;18.60;99.90
28532;DHT22;15738;44.860;10.066;2022-09-09T04:44:17;18.40;99.90
28532;DHT22;15738;44.860;10.066;2022-09-09T04:47:02;18.90;99.90
28532;DHT22;15738;44.860;10.066;2022-09-09T04:49:48;18.90;99.90
28532;DHT22;15738;44.860;10.066;2022-09-09T04:52:35;19.00;99.90
28532;DHT22;15738;44.860;10.066;2022-09-09T04:55:21;18.80;99.90
28532;DHT22;15738;44.860;10.066;2022-09-09T04:58:08;19.60;99.90
28532;DHT22;15738;44.860;10.066;2022-09-09T05:00:54;19.20;99.90
28532;DHT22;15738;44.860;10.066;2022-09-09T05:03:40;19.10;99.90
28532;DHT22;15738;44.860;10.066;2022-09-09T05:06:29;18.80;99.90
28532;DHT22;15738;44.860;10.066;2022-09-09T05:09:18;19.30;99.90
28532;DHT22;15738;44.860;10.066;2022-09-09T05:12:04;18.90;99.90
28532;DHT22;15738;44.860;10.066;2022-09-09T05:14:53;18.80;99.90
28532;DHT22;15738;44.860;10.066;2022-09-09T05:17:39;18.70;99.90
28532;DHT22;15738;44.860;10.066;2022-09-09T05:20:26;18.70;99.90
28532;DHT22;15738;44.860;10.066;2022-09-09T05:23:11;18.70;99.90
28532;DHT22;15738;44.860;10.066;2022-09-09T05:25:59;18.70;99.90
28532;DHT22;15738;44.860;10.066;2022-09-09T05:28:47;19.30;99.90
28532;DHT22;15738;44.860;10.066;2022-09-09T05:31:33;19.70;99.90
28532;DHT22;15738;44.860;10.066;2022-09-09T05:34:22;19.60;99.90
28532;DHT22;15738;44.860;10.066;2022-09-09T05:37:09;19.80;99.90
28532;DHT22;15738;44.860;10.066;2022-09-09T05:39:55;20.40;99.90
28532;DHT22;15738;44.860;10.066;2022-09-09T05:42:41;20.20;99.90
28532;DHT22;15738;44.860;10.066;2022-09-09T05:45:27;20.80;99.90
28532;DHT22;15738;44.860;10.066;2022-09-09T05:48:14;20.70;99.90
28532;DHT22;15738;44.860;10.066;2022-09-09T05:51:02;21.30;99.90
28532;DHT22;15738;44.860;10.066;2022-09-09T05:53:50;21.20;99.90
28532;DHT22;15738;44.860;10.066;2022-09-09T05:56:37;21.20;99.90
28532;DHT22;15738;44.860;10.066;2022-09-09T05:59:25;22.00;99.90
28532;DHT22;15738;44.860;10.066;2022-09-09T06:02:13;22.00;99.90
28532;DHT22;15738;44.860;10.066;2022-09-09T06:04:59;22.60;99.90
28532;DHT22;15738;44.860;10.066;2022-09-09T06:07:46;23.40;99.90
28532;DHT22;15738;44.860;10.066;2022-09-09T06:10:32;24.50;99.90
28532;DHT22;15738;44.860;10.066;2022-09-09T06:13:19;25.30;99.90
28532;DHT22;15738;44.860;10.066;2022-09-09T06:16:10;25.90;99.90
28532;DHT22;15738;44.860;10.066;2022-09-09T06:18:58;25.90;99.90
28532;DHT22;15738;44.860;10.066;2022-09-09T06:21:46;25.30;99.90
28532;DHT22;15738;44.860;10.066;2022-09-09T06:24:34;25.60;99.90
28532;DHT22;15738;44.860;10.066;2022-09-09T06:27:21;25.60;99.90
28532;DHT22;15738;44.860;10.066;2022-09-09T06:30:07;25.50;99.90
28532;DHT22;15738;44.860;10.066;2022-09-09T06:32:55;25.30;99.90
28532;DHT22;15738;44.860;10.066;2022-09-09T06:35:41;25.70;99.90
28532;DHT22;15738;44.860;10.066;2022-09-09T06:38:27;25.20;99.90
28532;DHT22;15738;44.860;10.066;2022-09-09T06:41:15;25.10;99.90
28532;DHT22;15738;44.860;10.066;2022-09-09T06:44:03;25.00;99.90
28532;DHT22;15738;44.860;10.066;2022-09-09T06:46:57;24.90;99.90
28532;DHT22;15738;44.860;10.066;2022-09-09T06:49:42;24.70;99.90
28532;DHT22;15738;44.860;10.066;2022-09-09T06:52:33;24.20;99.90
28532;DHT22;15738;44.860;10.066;2022-09-09T06:58:09;24.50;99.90
28532;DHT22;15738;44.860;10.066;2022-09-09T07:01:07;25.00;99.90
28532;DHT22;15738;44.860;10.066;2022-09-09T07:03:55;25.00;99.90
28532;DHT22;15738;44.860;10.066;2022-09-09T07:06:43;25.20;99.90
28532;DHT22;15738;44.860;10.066;2022-09-09T07:09:32;25.40;99.90
28532;DHT22;15738;44.860;10.066;2022-09-09T07:12:18;25.50;99.90
28532;DHT22;15738;44.860;10.066;2022-09-09T07:18:01;25.60;99.90
28532;DHT22;15738;44.860;10.066;2022-09-09T07:20:57;25.80;99.90
28532;DHT22;15738;44.860;10.066;2022-09-09T07:23:44;25.90;99.90
28532;DHT22;15738;44.860;10.066;2022-09-09T07:26:31;25.70;99.90
28532;DHT22;15738;44.860;10.066;2022-09-09T07:29:19;25.40;99.90
28532;DHT22;15738;44.860;10.066;2022-09-09T07:32:07;25.70;99.90
28532;DHT22;15738;44.860;10.066;2022-09-09T07:34:55;25.90;99.90
28532;DHT22;15738;44.860;10.066;2022-09-09T07:37:42;26.00;99.90
28532;DHT22;15738;44.860;10.066;2022-09-09T07:40:33;26.20;99.90
28532;DHT22;15738;44.860;10.066;2022-09-09T07:43:26;26.70;99.90
28532;DHT22;15738;44.860;10.066;2022-09-09T07:46:13;26.40;99.90
28532;DHT22;15738;44.860;10.066;2022-09-09T07:49:00;26.10;99.90
28532;DHT22;15738;44.860;10.066;2022-09-09T07:51:49;26.00;99.90
28532;DHT22;15738;44.860;10.066;2022-09-09T07:54:36;25.90;99.90
28532;DHT22;15738;44.860;10.066;2022-09-09T07:57:24;25.90;99.90
28532;DHT22;15738;44.860;10.066;2022-09-09T08:00:11;25.70;99.90
28532;DHT22;15738;44.860;10.066;2022-09-09T08:02:59;25.60;99.90
28532;DHT22;15738;44.860;10.066;2022-09-09T08:05:46;26.20;99.90
28532;DHT22;15738;44.860;10.066;2022-09-09T08:08:33;26.00;99.90
28532;DHT22;15738;44.860;10.066;2022-09-09T08:11:19;26.10;99.90
28532;DHT22;15738;44.860;10.066;2022-09-09T08:14:08;26.50;99.90
28532;DHT22;15738;44.860;10.066;2022-09-09T08:16:54;26.50;99.90
28532;DHT22;15738;44.860;10.066;2022-09-09T08:19:43;26.90;99.90
28532;DHT22;15738;44.860;10.066;2022-09-09T08:22:35;27.40;99.90
28532;DHT22;15738;44.860;10.066;2022-09-09T08:25:23;27.40;99.90
28532;DHT22;15738;44.860;10.066;2022-09-09T08:28:10;27.00;99.90
28532;DHT22;15738;44.860;10.066;2022-09-09T08:31:08;27.10;99.90
28532;DHT22;15738;44.860;10.066;2022-09-09T08:33:56;27.30;99.90
28532;DHT22;15738;44.860;10.066;2022-09-09T08:36:44;26.70;99.90
28532;DHT22;15738;44.860;10.066;2022-09-09T08:39:31;26.80;99.90
28532;DHT22;15738;44.860;10.066;2022-09-09T08:42:41;27.10;99.90
28532;DHT22;15738;44.860;10.066;2022-09-09T08:45:34;27.60;99.90
28532;DHT22;15738;44.860;10.066;2022-09-09T08:48:52;27.50;99.90
28532;DHT22;15738;44.860;10.066;2022-09-09T08:51:42;27.60;99.90
28532;DHT22;15738;44.860;10.066;2022-09-09T08:54:33;27.70;99.90
28532;DHT22;15738;44.860;10.066;2022-09-09T08:57:36;28.00;99.90
28532;DHT22;15738;44.860;10.066;2022-09-09T09:00:23;28.40;99.90
28532;DHT22;15738;44.860;10.066;2022-09-09T09:03:19;28.70;99.90
28532;DHT22;15738;44.860;10.066;2022-09-09T09:12:23;28.80;99.90
28532;DHT22;15738;44.860;10.066;2022-09-09T09:15:22;28.80;99.90
28532;DHT22;15738;44.860;10.066;2022-09-09T09:18:12;28.50;99.90
28532;DHT22;15738;44.860;10.066;2022-09-09T09:21:10;28.50;99.90
28532;DHT22;15738;44.860;10.066;2022-09-09T09:24:00;27.90;99.90
28532;DHT22;15738;44.860;10.066;2022-09-09T09:29:38;27.80;99.90
28532;DHT22;15738;44.860;10.066;2022-09-09T09:33:02;27.90;99.90
28532;DHT22;15738;44.860;10.066;2022-09-09T09:35:51;28.00;99.90
28532;DHT22;15738;44.860;10.066;2022-09-09T09:38:38;28.10;99.90
28532;DHT22;15738;44.860;10.066;2022-09-09T09:41:47;28.20;99.90
28532;DHT22;15738;44.860;10.066;2022-09-09T09:44:34;28.20;99.90
28532;DHT22;15738;44.860;10.066;2022-09-09T09:47:29;27.80;99.90
28532;DHT22;15738;44.860;10.066;2022-09-09T09:50:25;27.60;99.90
28532;DHT22;15738;44.860;10.066;2022-09-09T09:53:25;27.50;99.90
28532;DHT22;15738;44.860;10.066;2022-09-09T09:56:14;27.40;99.90
28532;DHT22;15738;44.860;10.066;2022-09-09T09:59:01;27.30;99.90
28532;DHT22;15738;44.860;10.066;2022-09-09T10:02:22;27.20;99.90
28532;DHT22;15738;44.860;10.066;2022-09-09T10:05:29;27.30;99.90
28532;DHT22;15738;44.860;10.066;2022-09-09T10:08:27;27.40;99.90
28532;DHT22;15738;44.860;10.066;2022-09-09T10:11:23;27.40;99.90
28532;DHT22;15738;44.860;10.066;2022-09-09T10:14:28;27.30;99.90
28532;DHT22;15738;44.860;10.066;2022-09-09T10:30:10;27.00;99.90
28532;DHT22;15738;44.860;10.066;2022-09-09T10:36:29;26.70;99.90
28532;DHT22;15738;44.860;10.066;2022-09-09T10:39:23;26.60;99.90
28532;DHT22;15738;44.860;10.066;2022-09-09T10:42:15;26.70;99.90
28532;DHT22;15738;44.860;10.066;2022-09-09T10:45:18;26.70;99.90
28532;DHT22;15738;44.860;10.066;2022-09-09T10:51:23;26.80;99.90
28532;DHT22;15738;44.860;10.066;2022-09-09T10:57:17;26.90;99.90
28532;DHT22;15738;44.860;10.066;2022-09-09T11:03:26;26.90;99.90
28532;DHT22;15738;44.860;10.066;2022-09-09T11:06:19;27.00;99.90
28532;DHT22;15738;44.860;10.066;2022-09-09T11:09:15;27.00;99.90
28532;DHT22;15738;44.860;10.066;2022-09-09T11:12:02;26.80;99.90
28532;DHT22;15738;44.860;10.066;2022-09-09T11:17:52;26.90;99.90
28532;DHT22;15738;44.860;10.066;2022-09-09T11:20:39;26.90;99.90
28532;DHT22;15738;44.860;10.066;2022-09-09T11:23:42;27.10;99.90
28532;DHT22;15738;44.860;10.066;2022-09-09T11:26:38;27.00;99.90
28532;DHT22;15738;44.860;10.066;2022-09-09T11:29:43;27.20;99.90
28532;DHT22;15738;44.860;10.066;2022-09-09T11:32:59;27.10;99.90
28532;DHT22;15738;44.860;10.066;2022-09-09T11:39:31;27.00;99.90
28532;DHT22;15738;44.860;10.066;2022-09-09T11:42:23;26.90;99.90
28532;DHT22;15738;44.860;10.066;2022-09-09T11:45:26;27.10;99.90
28532;DHT22;15738;44.860;10.066;2022-09-09T11:48:32;27.30;99.90
28532;DHT22;15738;44.860;10.066;2022-09-09T11:54:31;27.20;99.90
28532;DHT22;15738;44.860;10.066;2022-09-09T11:57:32;27.10;99.90
28532;DHT22;15738;44.860;10.066;2022-09-09T12:00:39;27.00;99.90
28532;DHT22;15738;44.860;10.066;2022-09-09T12:03:45;27.20;99.90
28532;DHT22;15738;44.860;10.066;2022-09-09T12:06:51;27.30;99.90
28532;DHT22;15738;44.860;10.066;2022-09-09T12:12:36;27.60;99.90
28532;DHT22;15738;44.860;10.066;2022-09-09T12:15:28;27.70;99.90
28532;DHT22;15738;44.860;10.066;2022-09-09T12:18:23;27.70;99.90
28532;DHT22;15738;44.860;10.066;2022-09-09T12:27:31;27.70;99.90
28532;DHT22;15738;44.860;10.066;2022-09-09T12:30:19;27.80;99.90
28532;DHT22;15738;44.860;10.066;2022-09-09T12:33:33;27.80;99.90
28532;DHT22;15738;44.860;10.066;2022-09-09T12:36:29;27.80;99.90
28532;DHT22;15738;44.860;10.066;2022-09-09T12:39:49;27.70;99.90
28532;DHT22;15738;44.860;10.066;2022-09-09T12:42:39;27.80;99.90
28532;DHT22;15738;44.860;10.066;2022-09-09T12:45:31;27.90;99.90
28532;DHT22;15738;44.860;10.066;2022-09-09T12:48:18;27.80;99.90
28532;DHT22;15738;44.860;10.066;2022-09-09T12:51:16;27.90;99.90
28532;DHT22;15738;44.860;10.066;2022-09-09T12:54:05;28.10;99.90
28532;DHT22;15738;44.860;10.066;2022-09-09T12:56:51;28.10;99.90
28532;DHT22;15738;44.860;10.066;2022-09-09T12:59:40;28.10;99.90
28532;DHT22;15738;44.860;10.066;2022-09-09T13:02:27;28.10;99.90
28532;DHT22;15738;44.860;10.066;2022-09-09T13:05:19;28.10;99.90
28532;DHT22;15738;44.860;10.066;2022-09-09T13:08:08;28.10;99.90
28532;DHT22;15738;44.860;10.066;2022-09-09T13:11:03;28.00;99.90
28532;DHT22;15738;44.860;10.066;2022-09-09T13:13:52;27.90;99.90
28532;DHT22;15738;44.860;10.066;2022-09-09T13:16:39;27.90;99.90
28532;DHT22;15738;44.860;10.066;2022-09-09T13:19:31;27.80;99.90
28532;DHT22;15738;44.860;10.066;2022-09-09T13:22:34;27.60;99.90
28532;DHT22;15738;44.860;10.066;2022-09-09T13:25:28;27.60;99.90
28532;DHT22;15738;44.860;10.066;2022-09-09T13:28:22;27.70;99.90
28532;DHT22;15738;44.860;10.066;2022-09-09T13:31:22;27.70;99.90
28532;DHT22;15738;44.860;10.066;2022-09-09T13:34:30;27.80;99.90
28532;DHT22;15738;44.860;10.066;2022-09-09T13:40:21;27.70;99.90
28532;DHT22;15738;44.860;10.066;2022-09-09T13:43:19;27.80;99.90
28532;DHT22;15738;44.860;10.066;2022-09-09T13:46:31;27.80;99.90
28532;DHT22;15738;44.860;10.066;2022-09-09T13:49:22;28.00;99.90
28532;DHT22;15738;44.860;10.066;2022-09-09T13:52:14;28.10;99.90
28532;DHT22;15738;44.860;10.066;2022-09-09T13:55:01;28.00;99.90
28532;DHT22;15738;44.860;10.066;2022-09-09T13:57:59;28.10;99.90
28532;DHT22;15738;44.860;10.066;2022-09-09T14:00:48;28.20;99.90
28532;DHT22;15738;44.860;10.066;2022-09-09T14:03:38;28.20;99.90
28532;DHT22;15738;44.860;10.066;2022-09-09T14:06:23;28.30;99.90
28532;DHT22;15738;44.860;10.066;2022-09-09T14:09:14;28.30;99.90
28532;DHT22;15738;44.860;10.066;2022-09-09T14:12:01;28.30;99.90
28532;DHT22;15738;44.860;10.066;2022-09-09T14:14:47;28.20;99.90
28532;DHT22;15738;44.860;10.066;2022-09-09T14:17:33;28.10;99.90
28532;DHT22;15738;44.860;10.066;2022-09-09T14:20:21;28.00;99.90
28532;DHT22;15738;44.860;10.066;2022-09-09T14:23:40;27.90;99.90
28532;DHT22;15738;44.860;10.066;2022-09-09T14:26:26;28.30;99.90
28532;DHT22;15738;44.860;10.066;2022-09-09T14:29:14;27.90;99.90
28532;DHT22;15738;44.860;10.066;2022-09-09T14:32:00;28.00;99.90
28532;DHT22;15738;44.860;10.066;2022-09-09T14:34:49;27.90;99.90
28532;DHT22;15738;44.860;10.066;2022-09-09T14:37:35;28.00;99.90
28532;DHT22;15738;44.860;10.066;2022-09-09T14:43:10;28.30;99.90
28532;DHT22;15738;44.860;10.066;2022-09-09T14:45:56;27.90;99.90
28532;DHT22;15738;44.860;10.066;2022-09-09T14:48:43;27.80;99.90
28532;DHT22;15738;44.860;10.066;2022-09-09T14:51:31;27.90;99.90
28532;DHT22;15738;44.860;10.066;2022-09-09T14:54:16;27.90;99.90
28532;DHT22;15738;44.860;10.066;2022-09-09T14:57:02;27.90;99.90
28532;DHT22;15738;44.860;10.066;2022-09-09T14:59:48;27.90;99.90
28532;DHT22;15738;44.860;10.066;2022-09-09T15:02:36;27.90;99.90
28532;DHT22;15738;44.860;10.066;2022-09-09T15:05:24;27.80;99.90
28532;DHT22;15738;44.860;10.066;2022-09-09T15:08:09;27.80;99.90
28532;DHT22;15738;44.860;10.066;2022-09-09T15:11:02;27.80;99.90
28532;DHT22;15738;44.860;10.066;2022-09-09T15:13:51;27.80;99.90
28532;DHT22;15738;44.860;10.066;2022-09-09T15:16:38;27.90;99.90
28532;DHT22;15738;44.860;10.066;2022-09-09T15:19:25;28.00;99.90
28532;DHT22;15738;44.860;10.066;2022-09-09T15:22:12;27.70;99.90
28532;DHT22;15738;44.860;10.066;2022-09-09T15:24:58;27.70;99.90
28532;DHT22;15738;44.860;10.066;2022-09-09T15:27:43;27.70;99.90
28532;DHT22;15738;44.860;10.066;2022-09-09T15:30:29;27.70;99.90
28532;DHT22;15738;44.860;10.066;2022-09-09T15:33:15;27.80;99.90
28532;DHT22;15738;44.860;10.066;2022-09-09T15:36:16;27.70;99.90
28532;DHT22;15738;44.860;10.066;2022-09-09T15:39:03;27.70;99.90
28532;DHT22;15738;44.860;10.066;2022-09-09T15:41:50;27.70;99.90
28532;DHT22;15738;44.860;10.066;2022-09-09T15:44:40;27.60;99.90
28532;DHT22;15738;44.860;10.066;2022-09-09T15:47:27;27.60;99.90
28532;DHT22;15738;44.860;10.066;2022-09-09T15:50:13;27.70;99.90
28532;DHT22;15738;44.860;10.066;2022-09-09T15:52:59;27.60;99.90
28532;DHT22;15738;44.860;10.066;2022-09-09T15:55:45;27.60;99.90
28532;DHT22;15738;44.860;10.066;2022-09-09T15:58:31;27.50;99.90
28532;DHT22;15738;44.860;10.066;2022-09-09T16:01:16;27.50;99.90
28532;DHT22;15738;44.860;10.066;2022-09-09T16:04:04;26.70;99.90
28532;DHT22;15738;44.860;10.066;2022-09-09T16:06:55;27.30;99.90
28532;DHT22;15738;44.860;10.066;2022-09-09T16:09:41;27.30;99.90
28532;DHT22;15738;44.860;10.066;2022-09-09T16:12:28;27.50;99.90
28532;DHT22;15738;44.860;10.066;2022-09-09T16:15:14;27.40;99.90
28532;DHT22;15738;44.860;10.066;2022-09-09T16:18:00;27.30;99.90
28532;DHT22;15738;44.860;10.066;2022-09-09T16:20:53;27.30;99.90
28532;DHT22;15738;44.860;10.066;2022-09-09T16:23:40;27.30;99.90
28532;DHT22;15738;44.860;10.066;2022-09-09T16:26:26;27.30;99.90
28532;DHT22;15738;44.860;10.066;2022-09-09T16:29:14;27.30;99.90
28532;DHT22;15738;44.860;10.066;2022-09-09T16:32:01;27.10;99.90
28532;DHT22;15738;44.860;10.066;2022-09-09T16:34:48;27.30;99.90
28532;DHT22;15738;44.860;10.066;2022-09-09T16:37:34;27.20;99.90
28532;DHT22;15738;44.860;10.066;2022-09-09T16:40:20;27.20;99.90
28532;DHT22;15738;44.860;10.066;2022-09-09T16:43:06;27.10;99.90
28532;DHT22;15738;44.860;10.066;2022-09-09T16:45:52;27.10;99.90
28532;DHT22;15738;44.860;10.066;2022-09-09T16:48:37;27.10;99.90
28532;DHT22;15738;44.860;10.066;2022-09-09T16:51:29;27.10;99.90
28532;DHT22;15738;44.860;10.066;2022-09-09T16:54:16;27.00;99.90
28532;DHT22;15738;44.860;10.066;2022-09-09T16:57:02;26.90;99.90
28532;DHT22;15738;44.860;10.066;2022-09-09T16:59:48;26.90;99.90
28532;DHT22;15738;44.860;10.066;2022-09-09T17:02:35;26.90;99.90
28532;DHT22;15738;44.860;10.066;2022-09-09T17:05:21;26.80;99.90
28532;DHT22;15738;44.860;10.066;2022-09-09T17:08:06;26.90;99.90
28532;DHT22;15738;44.860;10.066;2022-09-09T17:10:52;26.80;99.90
28532;DHT22;15738;44.860;10.066;2022-09-09T17:13:37;26.70;99.90
28532;DHT22;15738;44.860;10.066;2022-09-09T17:16:25;26.70;99.90
28532;DHT22;15738;44.860;10.066;2022-09-09T17:19:13;26.60;99.90
28532;DHT22;15738;44.860;10.066;2022-09-09T17:21:59;26.60;99.90
28532;DHT22;15738;44.860;10.066;2022-09-09T17:25:01;26.60;99.90
28532;DHT22;15738;44.860;10.066;2022-09-09T17:27:47;26.60;99.90
28532;DHT22;15738;44.860;10.066;2022-09-09T17:30:36;26.40;99.90
28532;DHT22;15738;44.860;10.066;2022-09-09T17:33:22;26.50;99.90
28532;DHT22;15738;44.860;10.066;2022-09-09T17:39:02;26.40;99.90
28532;DHT22;15738;44.860;10.066;2022-09-09T17:41:48;26.40;99.90
28532;DHT22;15738;44.860;10.066;2022-09-09T17:44:34;26.30;99.90
28532;DHT22;15738;44.860;10.066;2022-09-09T17:47:20;26.20;99.90
28532;DHT22;15738;44.860;10.066;2022-09-09T17:50:12;26.20;99.90
28532;DHT22;15738;44.860;10.066;2022-09-09T17:52:58;26.10;99.90
28532;DHT22;15738;44.860;10.066;2022-09-09T17:55:44;26.00;99.90
28532;DHT22;15738;44.860;10.066;2022-09-09T17:58:36;25.90;99.90
28532;DHT22;15738;44.860;10.066;2022-09-09T18:01:26;25.70;99.90
28532;DHT22;15738;44.860;10.066;2022-09-09T18:04:14;26.30;99.90
28532;DHT22;15738;44.860;10.066;2022-09-09T18:07:00;25.80;99.90
28532;DHT22;15738;44.860;10.066;2022-09-09T18:09:46;25.80;99.90
28532;DHT22;15738;44.860;10.066;2022-09-09T18:12:34;25.70;99.90
28532;DHT22;15738;44.860;10.066;2022-09-09T18:15:19;25.60;99.90
28532;DHT22;15738;44.860;10.066;2022-09-09T18:18:27;25.30;99.90
28532;DHT22;15738;44.860;10.066;2022-09-09T18:21:13;25.50;99.90
28532;DHT22;15738;44.860;10.066;2022-09-09T18:24:00;25.50;99.90
28532;DHT22;15738;44.860;10.066;2022-09-09T18:26:48;25.40;99.90
28532;DHT22;15738;44.860;10.066;2022-09-09T18:29:34;25.70;99.90
28532;DHT22;15738;44.860;10.066;2022-09-09T18:32:20;25.10;99.90
28532;DHT22;15738;44.860;10.066;2022-09-09T18:35:06;25.50;99.90
28532;DHT22;15738;44.860;10.066;2022-09-09T18:37:51;25.20;99.90
28532;DHT22;15738;44.860;10.066;2022-09-09T18:40:37;24.80;99.90
28532;DHT22;15738;44.860;10.066;2022-09-09T18:46:10;25.60;99.90
28532;DHT22;15738;44.860;10.066;2022-09-09T18:48:56;24.90;99.90
28532;DHT22;15738;44.860;10.066;2022-09-09T18:51:43;25.00;99.90
28532;DHT22;15738;44.860;10.066;2022-09-09T18:54:30;24.90;99.90
28532;DHT22;15738;44.860;10.066;2022-09-09T18:57:18;24.80;99.90
28532;DHT22;15738;44.860;10.066;2022-09-09T19:00:05;24.60;99.90
28532;DHT22;15738;44.860;10.066;2022-09-09T19:02:52;24.60;99.90
28532;DHT22;15738;44.860;10.066;2022-09-09T19:05:38;24.70;99.90
28532;DHT22;15738;44.860;10.066;2022-09-09T19:11:15;25.10;99.90
28532;DHT22;15738;44.860;10.066;2022-09-09T19:14:05;24.50;99.90
28532;DHT22;15738;44.860;10.066;2022-09-09T19:16:55;24.60;99.90
28532;DHT22;15738;44.860;10.066;2022-09-09T19:19:41;24.60;99.90
28532;DHT22;15738;44.860;10.066;2022-09-09T19:22:26;24.20;99.90
28532;DHT22;15738;44.860;10.066;2022-09-09T19:25:14;24.40;99.90
28532;DHT22;15738;44.860;10.066;2022-09-09T19:28:00;24.40;99.90
28532;DHT22;15738;44.860;10.066;2022-09-09T19:30:47;24.40;99.90
28532;DHT22;15738;44.860;10.066;2022-09-09T19:33:35;24.40;99.90
28532;DHT22;15738;44.860;10.066;2022-09-09T19:36:22;24.40;99.90
28532;DHT22;15738;44.860;10.066;2022-09-09T19:39:09;24.60;99.90
28532;DHT22;15738;44.860;10.066;2022-09-09T19:41:55;24.50;99.90
28532;DHT22;15738;44.860;10.066;2022-09-09T19:44:40;24.40;99.90
28532;DHT22;15738;44.860;10.066;2022-09-09T19:47:26;24.50;99.90